Pataskala, OH (43062)

11:59 PM EDT on April 28, 2017 (GMT -0400)
Jefferson Ridge | | Change Station

Elev 1200 ft 40.02 °N, 82.64 °W | Updated 4 minutes ago

Mostly Cloudy
Mostly Cloudy
54.8 °F
Feels Like 54.8 °F
N
0.0
Wind Variable Wind from East
Gusts 10.0 mph

Today
High -- | Low -- °F
--% Chance of Precip.
Yesterday
High -- | Low -- °F
Precip. -- in
Pressure 29.99 in
Visibility 10.0 miles
Clouds Few 7500 ft
Scattered Clouds 9000 ft
Dew Point 54 °F
Humidity 96%
Rainfall 0.27 in
Snow Depth Not available.
6:34 AM 8:22 PM
Waxing Crescent, 10% visible
METAR KVTA 290354Z AUTO 06008KT 10SM -RA FEW075 SCT090 14/13 A2999 RMK AO2 LTG DSNT E-S TSB09E24 SLP155 P0004 T01390128 $
Pressure 29.99 in
Visibility 10.0 miles
Clouds Few 7500 ft
Scattered Clouds 9000 ft
Dew Point 54 °F
Humidity 96%
Rainfall 0.27 in
Snow Depth Not available.
6:34 AM 8:22 PM
Waxing Crescent, 10% visible
METAR KVTA 290354Z AUTO 06008KT 10SM -RA FEW075 SCT090 14/13 A2999 RMK AO2 LTG DSNT E-S TSB09E24 SLP155 P0004 T01390128 $

Get Severe Weather Alerts

Thanks for signing up!

Be on the lookout for a verification email in your inbox.

You'll start receiving the daily forecast at 8 AM.

×

10-Day Weather Forecast

Almanac

Astronomy

Apr. 28, 2017 Rise Set
Actual Time
Civil Twilight
Nautical Twilight
Astronomical Twilight
Moon
Length of Visible Light
Length of Day
Tomorrow will be .
, % of the Moon is Illuminated

Today's Extremes

State Highs State Lows

Community

WunderPhotos

WunderBlog® & News

Nearby

Air Quality

  Air Quality AQ Index Pollutant
Not available.

Snow Depth

Station Depth Elevation

Earthquake Activity

City Distance Mag. Time & Date
Minimum magnitude displayed is 2.5.

Coastal Water Temperatures

Place Temperature

Stations

Nearby Weather Stations

Station Location Temp. Windchill Dew Point Humidity Wind Precip. Elev Updated Type
                   

Watches & Warnings

There are currently no watches in effect.